createdAt,value
2024-03-02T00:02:30.786Z,99939.41
2024-03-02T00:05:02.566Z,99941.09
2024-03-02T00:07:34.608Z,99937.63
2024-03-02T00:10:14.640Z,99940.19
2024-03-02T00:12:46.784Z,99942.69
2024-03-02T00:15:42.691Z,99946.75
2024-03-02T00:18:16.659Z,99953.47
2024-03-02T00:20:48.148Z,99963.56
2024-03-02T00:23:21.058Z,99971.13
2024-03-02T00:25:57.197Z,99984.59
2024-03-02T00:28:29.866Z,99980.38
2024-03-02T00:31:03.561Z,99985.47
2024-03-02T00:33:38.015Z,100011.81
2024-03-02T00:36:11.156Z,100014.28
2024-03-02T00:38:50.968Z,100027.06
2024-03-02T00:41:28.404Z,100024.63
2024-03-02T00:44:04.642Z,100037.44
2024-03-02T00:46:39.211Z,100048.63
2024-03-02T00:49:16.633Z,100040.19
2024-03-02T00:51:52.416Z,100045.44
2024-03-02T00:54:25.753Z,100044.75
2024-03-02T00:57:00.610Z,100041.53
2024-03-02T00:59:33.056Z,100074.03
2024-03-02T01:02:04.359Z,100050.47
2024-03-02T01:04:35.842Z,100059.16
2024-03-02T01:07:07.836Z,100062.72
2024-03-02T01:09:39.260Z,100060.31
2024-03-02T01:12:13.577Z,100059.59
2024-03-02T01:14:44.977Z,100068.25
2024-03-02T01:17:16.482Z,100065.06
2024-03-02T01:19:47.969Z,100051.56
2024-03-02T01:22:24.671Z,100054.38
2024-03-02T01:24:56.078Z,100063.88
2024-03-02T01:27:30.362Z,100068.22
2024-03-02T01:30:01.735Z,100076.00
2024-03-02T01:32:33.084Z,100072.75
2024-03-02T01:35:04.371Z,100067.78
2024-03-02T01:37:36.130Z,100064.47
2024-03-02T01:40:10.523Z,100064.59
2024-03-02T01:42:44.743Z,100069.72
2024-03-02T01:45:17.872Z,100068.09
2024-03-02T01:47:49.487Z,100073.31
2024-03-02T01:50:21.774Z,100081.88
2024-03-02T01:52:53.110Z,100075.19
2024-03-02T01:55:24.453Z,100078.53
2024-03-02T01:57:59.688Z,100071.00
2024-03-02T02:00:31.588Z,100071.94
2024-03-02T02:03:03.143Z,100074.50
2024-03-02T02:05:34.532Z,100074.63
2024-03-02T02:08:06.680Z,100063.63
2024-03-02T02:10:38.131Z,100074.72
2024-03-02T02:13:12.544Z,100081.50
2024-03-02T02:15:44.033Z,100084.94
2024-03-02T02:18:15.911Z,100088.38
2024-03-02T02:20:47.303Z,100076.59
2024-03-02T02:23:21.304Z,100082.63
2024-03-02T02:25:52.554Z,100077.63
2024-03-02T02:28:23.985Z,100067.53
2024-03-02T02:30:55.306Z,100071.78
2024-03-02T02:33:26.752Z,100075.25
2024-03-02T02:35:58.127Z,100061.84
2024-03-02T02:38:32.360Z,100079.72
2024-03-02T02:41:03.604Z,100088.22
2024-03-02T02:43:34.917Z,100086.59
2024-03-02T02:46:06.280Z,100089.97
2024-03-02T02:48:37.959Z,100080.72
2024-03-02T02:51:09.361Z,100073.16
2024-03-02T02:53:43.418Z,100085.94
2024-03-02T02:56:14.703Z,100081.78
2024-03-02T02:58:46.190Z,100086.09
2024-03-02T03:01:18.426Z,100092.03
2024-03-02T03:03:50.059Z,100091.22
2024-03-02T03:06:21.596Z,100087.88
2024-03-02T03:08:55.531Z,100080.28
2024-03-02T03:11:27.747Z,100087.97
2024-03-02T03:13:59.224Z,100080.44
2024-03-02T03:16:30.873Z,100080.44
2024-03-02T03:19:02.262Z,100081.28
2024-03-02T03:21:33.634Z,100074.50
2024-03-02T03:24:08.133Z,100079.66
2024-03-02T03:26:40.834Z,100089.97
2024-03-02T03:29:12.054Z,100091.72
2024-03-02T03:31:43.319Z,100090.97
2024-03-02T03:34:17.071Z,100101.22
2024-03-02T03:36:48.568Z,100092.00
2024-03-02T03:39:22.507Z,100097.13
2024-03-02T03:41:53.853Z,100100.53
2024-03-02T03:44:25.409Z,100103.06
2024-03-02T03:46:57.138Z,100093.72
2024-03-02T03:49:28.516Z,100102.13
2024-03-02T03:51:59.838Z,100110.56
2024-03-02T03:54:33.858Z,100116.44
2024-03-02T03:57:05.907Z,100119.78
2024-03-02T03:59:38.487Z,100109.56
2024-03-02T04:02:10.214Z,100101.91
2024-03-02T04:04:41.528Z,100104.41
2024-03-02T04:07:13.327Z,100103.50
2024-03-02T04:09:47.267Z,100111.94
2024-03-02T04:12:18.572Z,100111.91
2024-03-02T04:14:49.910Z,100119.44
2024-03-02T04:17:21.623Z,100116.88
2024-03-02T04:19:53.239Z,100126.22
2024-03-02T04:22:25.744Z,100117.72
2024-03-02T04:25:00.097Z,100124.47
2024-03-02T04:27:31.733Z,100127.84
2024-03-02T04:30:03.591Z,100124.47
2024-03-02T04:32:34.960Z,100120.16
2024-03-02T04:35:06.347Z,100130.34
2024-03-02T04:37:39.697Z,100126.09
2024-03-02T04:40:14.892Z,100133.75
2024-03-02T04:42:46.169Z,100136.28
2024-03-02T04:45:17.781Z,100142.19
2024-03-02T04:47:50.335Z,100137.94
2024-03-02T04:50:21.772Z,100135.38
2024-03-02T04:52:53.126Z,100146.41
2024-03-02T04:55:53.519Z,100150.69
2024-03-02T04:58:25.026Z,100159.19
2024-03-02T05:00:56.411Z,100154.09
2024-03-02T05:03:27.941Z,100155.03
2024-03-02T05:05:59.286Z,100155.03
2024-03-02T05:08:30.989Z,100155.06
2024-03-02T05:11:25.692Z,100163.56
2024-03-02T05:13:54.384Z,100163.56
2024-03-02T05:16:26.112Z,100164.44
2024-03-02T05:18:57.397Z,100161.03
2024-03-02T05:21:28.752Z,100172.06
2024-03-02T05:24:00.032Z,100167.84
2024-03-02T05:26:34.240Z,100175.44
2024-03-02T05:29:05.538Z,100170.34
2024-03-02T05:31:36.913Z,100170.31
2024-03-02T05:34:08.262Z,100173.75
2024-03-02T05:36:40.354Z,100170.41
2024-03-02T05:39:12.003Z,100168.69
2024-03-02T05:41:45.907Z,100165.34
2024-03-02T05:44:17.188Z,100160.34
2024-03-02T05:46:48.939Z,100163.03
2024-03-02T05:49:20.566Z,100178.41
2024-03-02T05:51:51.978Z,100181.13
2024-03-02T05:54:23.309Z,100176.94
2024-03-02T05:56:57.523Z,100171.81
2024-03-02T05:59:28.785Z,100177.72
2024-03-02T06:02:00.094Z,100182.84
2024-03-02T06:04:31.369Z,100182.81
2024-03-02T06:07:03.129Z,100186.97
2024-03-02T06:09:34.451Z,100192.06
2024-03-02T06:12:09.097Z,100194.66
2024-03-02T06:14:40.375Z,100195.50
2024-03-02T06:17:11.982Z,100199.78
2024-03-02T06:19:43.559Z,100202.31
2024-03-02T06:22:14.859Z,100205.72
2024-03-02T06:24:46.254Z,100204.91
2024-03-02T06:27:20.372Z,100211.66
2024-03-02T06:29:52.790Z,100217.59
2024-03-02T06:32:24.348Z,100220.16
2024-03-02T06:34:55.645Z,100219.28
2024-03-02T06:37:28.508Z,100220.16
2024-03-02T06:40:00.033Z,100227.75
2024-03-02T06:42:35.192Z,100231.94
2024-03-02T06:45:07.349Z,100226.84
2024-03-02T06:47:38.983Z,100230.25
2024-03-02T06:50:11.101Z,100226.78
2024-03-02T06:52:43.466Z,100229.31
2024-03-02T06:55:14.754Z,100220.78
2024-03-02T06:57:49.049Z,100213.97
2024-03-02T07:00:21.764Z,100226.66
2024-03-02T07:02:53.357Z,100229.19
2024-03-02T07:05:25.081Z,100227.47
2024-03-02T07:07:56.675Z,100224.06
2024-03-02T07:10:27.993Z,100223.19
2024-03-02T07:13:02.362Z,100232.50
2024-03-02T07:15:51.380Z,100233.28
2024-03-02T07:18:23.039Z,100229.00
2024-03-02T07:20:54.410Z,100227.28
2024-03-02T07:23:28.510Z,100227.16
2024-03-02T07:28:39.295Z,100232.03
2024-03-02T07:31:11.255Z,100239.63
2024-03-02T07:33:42.769Z,100242.91
2024-03-02T07:36:14.112Z,100247.88
2024-03-02T07:38:46.096Z,100241.84
2024-03-02T07:41:17.742Z,100245.19
2024-03-02T07:43:52.185Z,100259.47
2024-03-02T07:46:23.835Z,100245.88
2024-03-02T07:48:55.832Z,100251.72
2024-03-02T07:51:27.585Z,100261.84
2024-03-02T07:53:59.016Z,100248.28
2024-03-02T07:56:31.143Z,100254.28
2024-03-02T07:59:05.428Z,100251.81
2024-03-02T08:01:37.215Z,100255.25
2024-03-02T08:04:08.849Z,100257.84
2024-03-02T08:06:40.711Z,100260.44
2024-03-02T08:09:13.228Z,100273.16
2024-03-02T08:11:44.549Z,100271.47
2024-03-02T08:14:18.599Z,100276.59
2024-03-02T08:16:50.648Z,100274.88
2024-03-02T08:19:22.367Z,100274.09
2024-03-02T08:21:53.886Z,100272.41
2024-03-02T08:24:25.202Z,100280.00
2024-03-02T08:26:56.797Z,100278.28
2024-03-02T08:29:30.948Z,100275.53
2024-03-02T08:32:02.342Z,100276.94
2024-03-02T08:34:35.153Z,100277.50
2024-03-02T08:37:07.180Z,100268.75
2024-03-02T08:39:38.569Z,100278.66
2024-03-02T08:42:10.382Z,100273.34
2024-03-02T08:44:44.478Z,100275.66
2024-03-02T08:47:16.107Z,100274.63
2024-03-02T08:49:47.452Z,100265.94
2024-03-02T08:52:18.739Z,100266.59
2024-03-02T08:54:50.122Z,100272.34
2024-03-02T08:57:21.635Z,100269.72
2024-03-02T08:59:55.579Z,100272.81
2024-03-02T09:02:27.233Z,100273.53
2024-03-02T09:04:58.629Z,100275.94
2024-03-02T09:07:30.298Z,100269.75
2024-03-02T09:10:04.474Z,100273.88
2024-03-02T09:12:35.942Z,100278.81
2024-03-02T09:15:17.422Z,100272.63
2024-03-02T09:17:49.038Z,100268.94
2024-03-02T09:20:20.675Z,100274.72
2024-03-02T09:22:52.129Z,100271.09
2024-03-02T09:25:23.475Z,100267.47
2024-03-02T09:27:55.068Z,100269.97
2024-03-02T09:30:29.006Z,100279.09
2024-03-02T09:35:34.659Z,100281.28
2024-03-02T09:38:07.729Z,100278.34
2024-03-02T09:40:39.176Z,100281.41
2024-03-02T09:43:10.720Z,100282.03
2024-03-02T09:45:44.903Z,100293.66
2024-03-02T09:48:19.863Z,100291.09
2024-03-02T09:50:51.478Z,100299.50
2024-03-02T09:53:23.475Z,100301.19
2024-03-02T09:55:54.831Z,100281.38
2024-03-02T09:58:26.625Z,100291.28
2024-03-02T10:01:00.605Z,100291.63
2024-03-02T10:03:34.945Z,100289.84
2024-03-02T10:06:24.294Z,100287.78
2024-03-02T10:08:56.179Z,100289.81
2024-03-02T10:11:35.705Z,100286.88
2024-03-02T10:14:12.155Z,100292.63
2024-03-02T10:16:48.397Z,100299.25
2024-03-02T10:19:36.398Z,100292.19
2024-03-02T10:22:10.017Z,100292.84
2024-03-02T10:24:43.152Z,100285.91
2024-03-02T10:27:19.536Z,100283.97
2024-03-02T10:29:52.165Z,100281.88
2024-03-02T10:32:27.758Z,100286.81
2024-03-02T10:35:01.092Z,100285.84
2024-03-02T10:37:33.442Z,100284.47
2024-03-02T10:40:09.697Z,100275.19
2024-03-02T10:42:42.626Z,100268.16
2024-03-02T10:45:14.910Z,100267.84
2024-03-02T10:47:51.665Z,100264.06
2024-03-02T10:50:23.034Z,100256.88
2024-03-02T10:52:54.367Z,100257.19
2024-03-02T10:55:25.973Z,100255.28
2024-03-02T10:57:59.730Z,100242.97
2024-03-02T11:00:36.279Z,100242.53
2024-03-02T11:03:12.702Z,100245.00
2024-03-02T11:05:45.791Z,100232.63
2024-03-02T11:08:22.497Z,100242.66
2024-03-02T11:10:56.456Z,100250.84
2024-03-02T11:13:38.581Z,100241.47
2024-03-02T11:16:20.604Z,100249.31
2024-03-02T11:18:54.962Z,100250.94
2024-03-02T11:21:26.587Z,100252.25
2024-03-02T11:23:57.909Z,100261.22
2024-03-02T11:26:29.971Z,100255.88
2024-03-02T11:29:01.797Z,100254.75
2024-03-02T11:32:03.322Z,100253.22
2024-03-02T11:34:40.579Z,100243.56
2024-03-02T11:37:14.056Z,100247.88
2024-03-02T11:39:45.598Z,100242.75
2024-03-02T11:42:18.142Z,100238.44
2024-03-02T11:44:51.785Z,100233.13
2024-03-02T11:47:23.411Z,100232.88
2024-03-02T11:49:57.757Z,100230.06
2024-03-02T11:52:31.751Z,100228.38
2024-03-02T11:55:04.350Z,100222.50
2024-03-02T11:57:36.124Z,100225.72
2024-03-02T12:00:09.058Z,100229.75
2024-03-02T12:02:43.143Z,100208.97
2024-03-02T12:05:17.857Z,100216.16
2024-03-02T12:07:50.611Z,100222.44
2024-03-02T12:10:22.130Z,100210.34
2024-03-02T12:13:00.779Z,100199.81
2024-03-02T12:15:34.239Z,100199.28
2024-03-02T12:18:07.493Z,100197.41
2024-03-02T12:20:41.493Z,100198.31
2024-03-02T12:23:15.138Z,100202.31
2024-03-02T12:25:47.147Z,100191.13
2024-03-02T12:28:19.010Z,100197.63
2024-03-02T12:30:51.774Z,100189.59
2024-03-02T12:33:24.764Z,100182.28
2024-03-02T12:35:58.712Z,100171.13
2024-03-02T12:38:30.884Z,100190.06
2024-03-02T12:41:02.199Z,100190.38
2024-03-02T12:43:38.728Z,100183.00
2024-03-02T12:46:10.268Z,100170.91
2024-03-02T12:48:45.534Z,100170.09
2024-03-02T12:51:19.582Z,100163.50
2024-03-02T12:53:57.456Z,100161.13
2024-03-02T12:56:29.780Z,100154.16
2024-03-02T12:59:02.655Z,100151.25
2024-03-02T13:01:36.942Z,100154.16
2024-03-02T13:04:08.585Z,100155.66
2024-03-02T13:06:42.789Z,100148.84
2024-03-02T13:09:17.303Z,100151.34
2024-03-02T13:11:48.782Z,100156.38
2024-03-02T13:14:20.150Z,100154.97
2024-03-02T13:16:53.885Z,100147.44
2024-03-02T13:19:25.424Z,100158.63
2024-03-02T13:21:59.899Z,100157.72
2024-03-02T13:24:31.769Z,100154.34
2024-03-02T13:27:05.321Z,100166.44
2024-03-02T13:29:36.686Z,100155.56
2024-03-02T13:32:08.736Z,100147.13
2024-03-02T13:34:40.274Z,100143.53
2024-03-02T13:37:14.918Z,100139.06
2024-03-02T13:39:46.683Z,100148.34
2024-03-02T13:42:18.197Z,100153.91
2024-03-02T13:44:52.247Z,100154.16
2024-03-02T13:47:23.970Z,100149.94
2024-03-02T13:49:55.237Z,100149.03
2024-03-02T13:52:29.123Z,100149.03
2024-03-02T13:55:00.466Z,100141.94
2024-03-02T13:57:32.497Z,100139.38
2024-03-02T14:00:04.350Z,100138.47
2024-03-02T14:02:43.517Z,100123.69
2024-03-02T14:05:15.195Z,100128.25
2024-03-02T14:07:49.252Z,100126.09
2024-03-02T14:10:23.570Z,100125.75
2024-03-02T14:12:56.622Z,100119.03
2024-03-02T14:15:28.173Z,100118.25
2024-03-02T14:17:59.915Z,100112.28
2024-03-02T14:20:31.519Z,100113.28
2024-03-02T14:23:05.439Z,100105.13
2024-03-02T14:25:36.851Z,100097.34
2024-03-02T14:28:27.210Z,100092.25
2024-03-02T14:31:02.317Z,100082.84
2024-03-02T14:33:33.935Z,100079.78
2024-03-02T14:36:05.654Z,100076.41
2024-03-02T14:38:39.908Z,100063.63
2024-03-02T14:41:11.183Z,100065.34
2024-03-02T14:43:42.492Z,100065.63
2024-03-02T14:46:14.083Z,100064.13
2024-03-02T14:48:45.492Z,100070.34
2024-03-02T14:51:17.604Z,100072.09
2024-03-02T14:53:51.636Z,100063.88
2024-03-02T14:56:22.962Z,100066.34
2024-03-02T14:58:55.046Z,100062.38
2024-03-02T15:01:26.723Z,100065.41
2024-03-02T15:03:58.183Z,100067.22
2024-03-02T15:06:29.763Z,100062.94
2024-03-02T15:09:03.973Z,100065.59
2024-03-02T15:11:35.325Z,100063.25
2024-03-02T15:14:06.797Z,100062.16
2024-03-02T15:16:39.627Z,100074.59
2024-03-02T15:19:11.048Z,100072.50
2024-03-02T15:21:42.722Z,100067.19
2024-03-02T15:24:16.702Z,100053.44
2024-03-02T15:26:48.440Z,100064.63
2024-03-02T15:29:20.466Z,100068.13
2024-03-02T15:31:52.541Z,100071.50
2024-03-02T15:34:24.505Z,100074.06
2024-03-02T15:36:56.326Z,100068.34
2024-03-02T15:39:30.326Z,100074.94
2024-03-02T15:42:01.683Z,100068.69
2024-03-02T15:44:33.105Z,100075.06
2024-03-02T15:47:04.998Z,100085.78
2024-03-02T15:49:36.714Z,100073.31
2024-03-02T15:52:08.430Z,100072.03
2024-03-02T15:54:42.307Z,100073.91
2024-03-02T15:57:14.164Z,100073.16
2024-03-02T15:59:45.597Z,100067.06
2024-03-02T16:02:16.980Z,100062.44
2024-03-02T16:04:48.488Z,100045.22
2024-03-02T16:07:20.222Z,100048.72
2024-03-02T16:09:54.259Z,100040.25
2024-03-02T16:12:25.784Z,100042.72
2024-03-02T16:14:57.387Z,100032.63
2024-03-02T16:17:29.073Z,100032.09
2024-03-02T16:20:00.800Z,100033.28
2024-03-02T16:22:32.187Z,100037.16
2024-03-02T16:25:06.250Z,100036.63
2024-03-02T16:27:38.256Z,100030.88
2024-03-02T16:30:11.954Z,100031.03
2024-03-02T16:32:43.281Z,100031.16
2024-03-02T16:35:14.869Z,100035.53
2024-03-02T16:37:47.391Z,100033.88
2024-03-02T16:40:21.449Z,100028.75
2024-03-02T16:42:53.466Z,100036.44
2024-03-02T16:45:25.478Z,100028.66
2024-03-02T16:47:57.365Z,100027.97
2024-03-02T16:50:28.908Z,100027.31
2024-03-02T16:53:00.211Z,100027.34
2024-03-02T16:55:34.115Z,100025.72
2024-03-02T16:58:05.839Z,100027.50
2024-03-02T17:00:39.130Z,100025.09
2024-03-02T17:03:10.421Z,100021.91
2024-03-02T17:05:41.747Z,100022.22
2024-03-02T17:08:13.474Z,100022.47
2024-03-02T17:10:47.792Z,100028.75
2024-03-02T17:13:19.148Z,100033.31
2024-03-02T17:15:50.526Z,100031.03
2024-03-02T17:18:22.046Z,100030.44
2024-03-02T17:20:53.383Z,100040.06
2024-03-02T17:23:24.762Z,100044.63
2024-03-02T17:25:58.640Z,100036.31
2024-03-02T17:28:33.049Z,100041.72
2024-03-02T17:31:05.682Z,100047.03
2024-03-02T17:33:37.283Z,100046.47
2024-03-02T17:36:09.351Z,100044.88
2024-03-02T17:38:41.047Z,100056.16
2024-03-02T17:41:14.943Z,100054.56
2024-03-02T17:43:46.249Z,100059.75
2024-03-02T17:46:17.992Z,100064.06
2024-03-02T17:48:49.553Z,100059.63
2024-03-02T17:51:20.892Z,100066.38
2024-03-02T17:53:53.104Z,100068.78
2024-03-02T17:56:28.208Z,100062.75
2024-03-02T17:58:59.593Z,100067.81
2024-03-02T18:01:31.476Z,100073.69
2024-03-02T18:04:04.801Z,100070.31
2024-03-02T18:06:37.552Z,100073.69
2024-03-02T18:09:09.228Z,100079.66
2024-03-02T18:11:43.601Z,100080.47
2024-03-02T18:14:15.279Z,100078.69
2024-03-02T18:16:48.660Z,100070.94
2024-03-02T18:19:20.080Z,100070.09
2024-03-02T18:21:51.630Z,100076.06
2024-03-02T18:24:24.656Z,100067.47
2024-03-02T18:27:01.869Z,100072.47
2024-03-02T18:29:33.133Z,100076.78
2024-03-02T18:32:04.978Z,100069.81
2024-03-02T18:34:38.936Z,100077.50
2024-03-02T18:37:13.168Z,100074.94
2024-03-02T18:39:45.307Z,100080.94
2024-03-02T18:42:19.483Z,100074.13
2024-03-02T18:44:51.297Z,100076.78
2024-03-02T18:47:23.043Z,100080.22
2024-03-02T18:49:56.513Z,100076.06
2024-03-02T18:52:28.878Z,100081.19
2024-03-02T18:55:00.333Z,100068.53
2024-03-02T18:57:35.109Z,100071.13
2024-03-02T19:00:12.231Z,100070.38
2024-03-02T19:02:45.213Z,100073.84
2024-03-02T19:05:16.482Z,100085.03
2024-03-02T19:07:50.357Z,100072.38
2024-03-02T19:10:21.773Z,100076.72
2024-03-02T19:12:55.692Z,100066.63
2024-03-02T19:15:27.130Z,100069.19
2024-03-02T19:17:58.876Z,100070.00
2024-03-02T19:20:30.274Z,100067.50
2024-03-02T19:23:03.580Z,100065.84
2024-03-02T19:25:37.762Z,100059.97
2024-03-02T19:28:12.282Z,100060.78
2024-03-02T19:30:45.967Z,100060.03
2024-03-02T19:33:19.010Z,100054.84
2024-03-02T19:35:50.518Z,100053.09
2024-03-02T19:38:25.692Z,100057.59
2024-03-02T19:40:56.996Z,100056.06
2024-03-02T19:43:30.897Z,100050.31
2024-03-02T19:46:02.245Z,100044.53
2024-03-02T19:48:33.831Z,100047.25
2024-03-02T19:51:05.168Z,100047.31
2024-03-02T19:53:38.638Z,100043.09
2024-03-02T19:56:12.645Z,100026.28
2024-03-02T19:58:46.574Z,100030.69
2024-03-02T20:01:21.523Z,100022.28
2024-03-02T20:03:52.885Z,100032.47
2024-03-02T20:06:24.384Z,100026.66
2024-03-02T20:08:55.702Z,100020.84
2024-03-02T20:11:27.047Z,100021.78
2024-03-02T20:14:00.969Z,100024.53
2024-03-02T20:16:32.714Z,100023.81
2024-03-02T20:19:04.166Z,100020.47
2024-03-02T20:21:35.591Z,100018.81
2024-03-02T20:24:06.925Z,100012.94
2024-03-02T20:26:38.817Z,100025.88
2024-03-02T20:29:12.802Z,100026.75
2024-03-02T20:31:44.096Z,100020.94
2024-03-02T20:34:17.982Z,100024.44
2024-03-02T20:36:49.784Z,100021.25
2024-03-02T20:39:22.538Z,100024.00
2024-03-02T20:41:54.635Z,100028.47
2024-03-02T20:44:28.922Z,100025.25
2024-03-02T20:47:00.631Z,100027.16
2024-03-02T20:49:32.398Z,100028.94
2024-03-02T20:52:03.801Z,100029.00
2024-03-02T20:54:35.170Z,100028.25
2024-03-02T20:57:07.252Z,100027.53
2024-03-02T20:59:41.342Z,100029.25
2024-03-02T21:02:12.722Z,100032.72
2024-03-02T21:04:46.148Z,100034.41
2024-03-02T21:07:19.726Z,100035.38
2024-03-02T21:09:51.358Z,100041.47
2024-03-02T21:12:22.739Z,100037.22
2024-03-02T21:14:56.744Z,100035.63
2024-03-02T21:17:28.652Z,100039.94
2024-03-02T21:20:00.036Z,100045.00
2024-03-02T21:22:31.302Z,100047.75
2024-03-02T21:25:03.635Z,100054.63
2024-03-02T21:27:35.424Z,100052.19
2024-03-02T21:30:10.671Z,100050.47
2024-03-02T21:32:42.087Z,100057.09
2024-03-02T21:35:16.247Z,100053.53
2024-03-02T21:37:47.911Z,100061.13
2024-03-02T21:40:20.575Z,100049.94
2024-03-02T21:42:52.255Z,100059.09
2024-03-02T21:45:26.533Z,100054.56
2024-03-02T21:47:58.191Z,100062.91
2024-03-02T21:50:31.532Z,100058.31
2024-03-02T21:53:04.537Z,100059.81
2024-03-02T21:55:36.401Z,100064.72
2024-03-02T21:58:08.649Z,100061.13
2024-03-02T22:00:42.672Z,100055.84
2024-03-02T22:03:14.715Z,100053.09
2024-03-02T22:05:46.180Z,100062.38
2024-03-02T22:08:17.643Z,100055.47
2024-03-02T22:10:48.925Z,100061.41
2024-03-02T22:13:21.912Z,100050.50
2024-03-02T22:15:55.992Z,100068.50
2024-03-02T22:18:27.810Z,100063.41
2024-03-02T22:21:00.812Z,100066.84
2024-03-02T22:23:34.938Z,100060.09
2024-03-02T22:26:06.296Z,100059.13
2024-03-02T22:28:37.858Z,100059.00
2024-03-02T22:31:12.009Z,100057.19
2024-03-02T22:33:43.328Z,100051.13
2024-03-02T22:36:14.621Z,100051.97
2024-03-02T22:38:48.833Z,100053.63
2024-03-02T22:41:20.326Z,100045.97
2024-03-02T22:43:52.116Z,100045.97
2024-03-02T22:46:26.159Z,100043.22
2024-03-02T22:48:57.661Z,100041.47
2024-03-02T22:51:30.299Z,100044.75
2024-03-02T22:54:01.527Z,100043.72
2024-03-02T22:56:32.903Z,100041.81
2024-03-02T22:59:04.224Z,100048.59
2024-03-02T23:01:41.798Z,100044.25
2024-03-02T23:04:13.612Z,100043.41
2024-03-02T23:06:45.067Z,100046.88
2024-03-02T23:09:16.384Z,100047.78
2024-03-02T23:11:47.724Z,100040.03
2024-03-02T23:14:19.047Z,100033.16
2024-03-02T23:16:53.075Z,100047.72
2024-03-02T23:19:24.471Z,100034.06
2024-03-02T23:21:56.276Z,100037.47
2024-03-02T23:24:27.625Z,100034.97
2024-03-02T23:26:59.221Z,100039.25
2024-03-02T23:29:30.536Z,100041.75
2024-03-02T23:32:04.441Z,100046.75
2024-03-02T23:34:35.754Z,100040.84
2024-03-02T23:37:07.662Z,100040.03
2024-03-02T23:39:52.294Z,100045.97
2024-03-02T23:42:23.587Z,100041.69
2024-03-02T23:44:54.898Z,100045.16
2024-03-02T23:47:28.936Z,100038.38
2024-03-02T23:50:00.224Z,100031.56
2024-03-02T23:52:32.618Z,100040.09
2024-03-02T23:55:06.312Z,100035.94
2024-03-02T23:57:39.285Z,100032.59
